createdAt,value
2023-02-23T00:02:08.717Z,0.74
2023-02-23T00:04:38.168Z,0.77
2023-02-23T00:07:06.602Z,0.75
2023-02-23T00:09:38.095Z,0.75
2023-02-23T00:12:09.607Z,0.75
2023-02-23T00:14:38.414Z,0.75
2023-02-23T00:17:14.362Z,0.74
2023-02-23T00:19:43.919Z,0.74
2023-02-23T00:22:12.782Z,0.72
2023-02-23T00:24:42.593Z,0.72
2023-02-23T00:27:17.517Z,0.70
2023-02-23T00:29:49.455Z,0.71
2023-02-23T00:32:21.515Z,0.69
2023-02-23T00:34:54.545Z,0.67
2023-02-23T00:37:23.103Z,0.65
2023-02-23T00:39:52.152Z,0.63
2023-02-23T00:42:20.748Z,0.62
2023-02-23T00:44:49.683Z,0.60
2023-02-23T00:47:23.948Z,0.55
2023-02-23T00:49:51.880Z,0.52
2023-02-23T00:52:20.485Z,0.49
2023-02-23T00:54:48.428Z,0.48
2023-02-23T00:57:16.248Z,0.47
2023-02-23T00:59:44.200Z,0.47
2023-02-23T01:02:12.450Z,0.45
2023-02-23T01:04:40.688Z,0.43
2023-02-23T01:07:08.542Z,0.37
2023-02-23T01:36:44.036Z,0.25
2023-02-23T01:39:15.354Z,0.27
2023-02-23T01:41:43.723Z,0.21
2023-02-23T01:44:14.637Z,0.13
2023-02-23T01:46:46.511Z,0.09
2023-02-23T01:49:32.911Z,0.02
2023-02-23T01:52:11.337Z,-0.03
2023-02-23T01:54:51.455Z,-0.06
2023-02-23T01:57:22.087Z,-0.10
2023-02-23T01:59:51.180Z,-0.12
2023-02-23T02:02:32.954Z,-0.14
2023-02-23T02:05:05.375Z,-0.14
2023-02-23T02:07:35.304Z,-0.16
2023-02-23T02:10:12.459Z,-0.18
2023-02-23T02:12:52.040Z,-0.16
2023-02-23T02:15:22.535Z,-0.19
2023-02-23T02:18:09.802Z,-0.22
2023-02-23T02:21:11.441Z,-0.21
2023-02-23T02:24:08.286Z,-0.20
2023-02-23T02:26:57.597Z,-0.20
2023-02-23T02:29:47.758Z,-0.21
2023-02-23T02:32:55.437Z,-0.24
2023-02-23T02:35:34.970Z,-0.28
2023-02-23T02:38:22.004Z,-0.32
2023-02-23T02:41:12.111Z,-0.31
2023-02-23T02:43:42.945Z,-0.32
2023-02-23T02:46:21.636Z,-0.34
2023-02-23T02:49:12.180Z,-0.33
2023-02-23T02:51:58.853Z,-0.37
2023-02-23T02:54:41.531Z,-0.36
2023-02-23T02:57:14.297Z,-0.36
2023-02-23T03:00:02.884Z,-0.37
2023-02-23T03:02:52.685Z,-0.46
2023-02-23T03:05:44.022Z,-0.49
2023-02-23T03:08:50.522Z,-0.52
2023-02-23T03:11:39.553Z,-0.49
2023-02-23T03:14:53.167Z,-0.58
2023-02-23T03:18:24.818Z,-0.57
2023-02-23T03:21:18.230Z,-0.56
2023-02-23T03:24:14.893Z,-0.60
2023-02-23T03:27:14.397Z,-0.63
2023-02-23T03:30:30.064Z,-0.58
2023-02-23T03:33:23.786Z,-0.63
2023-02-23T03:36:32.613Z,-0.61
2023-02-23T03:39:29.072Z,-0.57
2023-02-23T03:42:23.461Z,-0.63
2023-02-23T03:45:12.423Z,-0.61
2023-02-23T03:48:03.369Z,-0.62
2023-02-23T03:50:56.597Z,-0.61
2023-02-23T03:53:47.589Z,-0.61
2023-02-23T03:56:37.651Z,-0.65
2023-02-23T03:59:25.109Z,-0.66
2023-02-23T04:02:14.174Z,-0.62
2023-02-23T04:05:04.700Z,-0.61
2023-02-23T04:07:53.712Z,-0.60
2023-02-23T04:10:41.909Z,-0.60
2023-02-23T04:13:19.412Z,-0.58
2023-02-23T04:15:54.855Z,-0.59
2023-02-23T04:18:33.352Z,-0.57
2023-02-23T04:21:02.866Z,-0.57
2023-02-23T04:23:31.238Z,-0.56
2023-02-23T04:25:59.329Z,-0.54
2023-02-23T04:28:28.253Z,-0.56
2023-02-23T04:30:56.401Z,-0.61
2023-02-23T04:33:27.559Z,-0.61
2023-02-23T04:35:55.695Z,-0.59
2023-02-23T04:38:27.041Z,-0.61
2023-02-23T04:40:54.925Z,-0.65
2023-02-23T04:43:23.239Z,-0.64
2023-02-23T04:45:51.418Z,-0.63
2023-02-23T04:48:19.440Z,-0.64
2023-02-23T04:50:48.314Z,-0.67
2023-02-23T04:53:16.586Z,-0.66
2023-02-23T04:55:46.553Z,-0.68
2023-02-23T04:58:15.426Z,-0.67
2023-02-23T05:00:43.477Z,-0.67
2023-02-23T05:03:12.287Z,-0.68
2023-02-23T05:05:40.521Z,-0.69
2023-02-23T05:08:08.433Z,-0.72
2023-02-23T05:10:38.595Z,-0.72
2023-02-23T05:13:07.935Z,-0.74
2023-02-23T05:15:37.330Z,-0.77
2023-02-23T05:18:05.363Z,-0.76
2023-02-23T05:20:33.305Z,-0.76
2023-02-23T05:23:01.445Z,-0.77
2023-02-23T05:25:29.649Z,-0.78
2023-02-23T05:27:57.528Z,-0.79
2023-02-23T05:30:25.360Z,-0.79
2023-02-23T05:32:53.691Z,-0.80
2023-02-23T05:35:31.771Z,-0.80
2023-02-23T05:37:59.627Z,-0.82
2023-02-23T05:40:30.370Z,-0.87
2023-02-23T05:42:59.369Z,-0.92
2023-02-23T05:45:27.652Z,-0.92
2023-02-23T05:48:01.494Z,-0.93
2023-02-23T05:50:40.676Z,-0.96
2023-02-23T05:53:08.974Z,-0.95
2023-02-23T05:55:50.177Z,-0.94
2023-02-23T05:58:18.388Z,-1.00
2023-02-23T06:00:48.761Z,-1.01
2023-02-23T06:03:20.472Z,-1.02
2023-02-23T06:05:57.350Z,-1.01
2023-02-23T06:08:29.284Z,-1.01
2023-02-23T06:10:58.116Z,-0.98
2023-02-23T06:13:28.922Z,-0.94
2023-02-23T06:15:59.397Z,-0.92
2023-02-23T06:18:30.769Z,-0.92
2023-02-23T06:21:04.396Z,-0.92
2023-02-23T06:23:38.147Z,-0.92
2023-02-23T06:26:09.793Z,-0.92
2023-02-23T06:28:53.483Z,-0.91
2023-02-23T06:31:24.330Z,-0.90
2023-02-23T06:33:54.051Z,-0.87
2023-02-23T06:36:23.011Z,-0.86
2023-02-23T06:38:51.268Z,-0.87
2023-02-23T06:41:19.714Z,-0.84
2023-02-23T06:43:49.661Z,-0.83
2023-02-23T06:46:18.598Z,-0.77
2023-02-23T06:48:46.961Z,-0.77
2023-02-23T06:51:17.513Z,-0.75
2023-02-23T06:53:45.617Z,-0.70
2023-02-23T06:56:15.821Z,-0.65
2023-02-23T06:58:43.898Z,-0.61
2023-02-23T07:01:16.580Z,-0.58
2023-02-23T07:03:45.478Z,-0.53
2023-02-23T07:06:16.638Z,-0.53
2023-02-23T07:08:45.220Z,-0.49
2023-02-23T07:11:18.265Z,-0.46
2023-02-23T07:13:49.029Z,-0.43
2023-02-23T07:16:19.634Z,-0.39
2023-02-23T07:18:51.034Z,-0.36
2023-02-23T07:21:21.762Z,-0.29
2023-02-23T07:23:50.618Z,-0.27
2023-02-23T07:26:18.889Z,-0.24
2023-02-23T07:28:47.062Z,-0.22
2023-02-23T07:31:15.210Z,-0.19
2023-02-23T07:33:44.005Z,-0.17
2023-02-23T07:36:14.167Z,-0.13
2023-02-23T07:38:44.825Z,-0.09
2023-02-23T08:38:29.244Z,0.60
2023-02-23T08:41:01.521Z,0.70
2023-02-23T08:43:29.994Z,0.78
2023-02-23T08:45:58.765Z,0.87
2023-02-23T08:48:27.005Z,0.99
2023-02-23T08:50:59.116Z,1.10
2023-02-23T08:53:29.769Z,1.26
2023-02-23T08:56:03.188Z,1.43
2023-02-23T08:58:31.751Z,1.61
2023-02-23T09:01:00.213Z,1.81
2023-02-23T09:03:30.737Z,1.98
2023-02-23T09:06:07.514Z,2.14
2023-02-23T09:08:36.049Z,2.33
2023-02-23T09:11:04.885Z,2.85
2023-02-23T09:13:33.070Z,2.84
2023-02-23T09:16:01.128Z,2.88
2023-02-23T09:18:30.744Z,2.89
2023-02-23T09:20:59.554Z,2.98
2023-02-23T09:23:30.301Z,3.03
2023-02-23T09:26:19.991Z,2.99
2023-02-23T09:28:50.865Z,3.06
2023-02-23T09:31:23.523Z,3.11
2023-02-23T09:33:53.309Z,3.18
2023-02-23T09:36:24.249Z,3.23
2023-02-23T09:38:58.120Z,3.28
2023-02-23T09:41:26.211Z,3.31
2023-02-23T09:44:09.080Z,3.37
2023-02-23T09:47:04.572Z,3.44
2023-02-23T09:49:38.074Z,3.51
2023-02-23T09:52:15.623Z,3.59
2023-02-23T09:54:47.220Z,3.63
2023-02-23T09:57:25.613Z,3.67
2023-02-23T09:59:54.107Z,3.61
2023-02-23T10:02:34.673Z,3.63
2023-02-23T10:05:11.658Z,3.61
2023-02-23T10:08:04.782Z,3.63
2023-02-23T10:10:42.970Z,3.67
2023-02-23T10:13:20.045Z,3.74
2023-02-23T10:15:57.797Z,3.75
2023-02-23T10:18:52.559Z,3.76
2023-02-23T10:21:39.140Z,3.79
2023-02-23T10:24:11.502Z,3.83
2023-02-23T10:26:50.693Z,3.88
2023-02-23T10:29:41.404Z,3.99
2023-02-23T10:32:43.439Z,4.08
2023-02-23T11:05:25.797Z,4.46
2023-02-23T11:08:19.713Z,4.51
2023-02-23T11:11:08.486Z,4.52
2023-02-23T11:13:40.162Z,4.57
2023-02-23T11:16:10.659Z,4.65
2023-02-23T11:18:41.859Z,4.64
2023-02-23T11:21:13.168Z,4.64
2023-02-23T11:23:42.827Z,4.66
2023-02-23T11:26:29.786Z,4.65
2023-02-23T11:29:27.518Z,4.64
2023-02-23T11:32:19.423Z,4.70
2023-02-23T11:35:27.083Z,4.71
2023-02-23T12:13:59.312Z,5.73
2023-02-23T12:16:33.752Z,5.78
2023-02-23T12:19:46.587Z,5.85
2023-02-23T12:22:23.948Z,5.87
2023-02-23T12:25:05.085Z,5.87
2023-02-23T12:27:42.942Z,5.86
2023-02-23T12:30:43.454Z,5.84
2023-02-23T12:33:30.063Z,5.83
2023-02-23T12:36:26.207Z,5.81
2023-02-23T12:39:17.834Z,5.80
2023-02-23T12:41:57.352Z,5.79
2023-02-23T12:44:46.968Z,5.83
2023-02-23T12:47:26.928Z,5.82
2023-02-23T12:50:13.889Z,5.75
2023-02-23T12:53:17.244Z,5.76
2023-02-23T12:56:14.757Z,5.73
2023-02-23T12:59:20.475Z,5.71
2023-02-23T13:02:00.931Z,5.72
2023-02-23T13:04:39.621Z,5.73
2023-02-23T13:07:20.636Z,5.75
2023-02-23T13:40:01.923Z,5.90
2023-02-23T13:42:43.994Z,5.88
2023-02-23T13:45:40.627Z,5.89
2023-02-23T13:48:39.827Z,5.87
2023-02-23T13:51:14.447Z,5.87
2023-02-23T13:53:46.277Z,5.86
2023-02-23T13:56:18.429Z,5.86
2023-02-23T13:58:48.682Z,5.86
2023-02-23T14:01:22.116Z,5.85
2023-02-23T14:03:56.305Z,5.84
2023-02-23T14:06:52.903Z,5.85
2023-02-23T14:09:29.316Z,5.86
2023-02-23T14:12:18.578Z,5.85
2023-02-23T14:14:46.442Z,5.86
2023-02-23T14:17:13.198Z,5.85
2023-02-23T14:20:06.730Z,5.86
2023-02-23T14:22:34.825Z,6.07
2023-02-23T14:25:32.832Z,6.24
2023-02-23T14:28:07.330Z,6.23
2023-02-23T14:30:58.138Z,6.20
2023-02-23T14:33:40.841Z,6.20
2023-02-23T14:36:22.949Z,6.19
2023-02-23T14:38:58.120Z,6.09
2023-02-23T14:41:48.975Z,6.06
2023-02-23T14:44:41.614Z,6.02
2023-02-23T14:47:12.859Z,6.00
2023-02-23T14:49:49.436Z,5.98
2023-02-23T14:52:41.846Z,6.00
2023-02-23T14:55:11.412Z,5.99
2023-02-23T14:57:41.060Z,5.98
2023-02-23T15:00:22.480Z,5.97
2023-02-23T15:03:11.495Z,6.02
2023-02-23T15:05:52.178Z,6.03
2023-02-23T15:08:22.968Z,6.04
2023-02-23T15:10:58.817Z,6.00
2023-02-23T15:13:32.938Z,6.02
2023-02-23T15:16:28.407Z,6.03
2023-02-23T15:18:55.852Z,6.03
2023-02-23T15:21:28.325Z,5.99
2023-02-23T15:24:10.971Z,6.01
2023-02-23T15:26:42.906Z,6.01
2023-02-23T15:29:16.043Z,6.05
2023-02-23T15:31:51.490Z,5.96
2023-02-23T15:34:32.117Z,5.93
2023-02-23T15:37:02.738Z,5.91
2023-02-23T15:39:52.614Z,5.89
2023-02-23T15:42:38.320Z,5.88
2023-02-23T15:45:16.218Z,5.86
2023-02-23T15:47:45.320Z,5.84
2023-02-23T15:50:36.290Z,5.83
2023-02-23T15:53:12.994Z,5.87
2023-02-23T15:55:43.367Z,5.89
2023-02-23T15:58:24.008Z,5.88
2023-02-23T16:00:56.786Z,5.85
2023-02-23T16:03:33.320Z,5.82
2023-02-23T16:06:08.781Z,5.80
2023-02-23T16:08:36.972Z,5.74
2023-02-23T16:11:14.547Z,5.63
2023-02-23T16:13:46.522Z,5.61
2023-02-23T16:16:19.822Z,5.58
2023-02-23T16:18:52.808Z,5.57
2023-02-23T16:21:23.496Z,5.58
2023-02-23T16:23:53.011Z,5.58
2023-02-23T16:26:34.601Z,5.54
2023-02-23T16:29:04.249Z,5.54
2023-02-23T16:31:48.659Z,5.54
2023-02-23T16:34:44.561Z,5.51
2023-02-23T16:37:18.139Z,5.49
2023-02-23T16:39:45.207Z,5.50
2023-02-23T16:42:30.626Z,5.52
2023-02-23T16:44:59.084Z,5.47
2023-02-23T16:47:35.704Z,5.46
2023-02-23T16:50:19.800Z,5.52
2023-02-23T16:52:52.192Z,5.46
2023-02-23T16:55:24.813Z,5.44
2023-02-23T16:57:52.941Z,5.43
2023-02-23T17:00:29.660Z,5.41
2023-02-23T17:03:00.148Z,5.42
2023-02-23T17:05:28.604Z,5.41
2023-02-23T17:07:58.895Z,5.40
2023-02-23T17:10:45.107Z,5.47
2023-02-23T17:13:21.437Z,5.48
2023-02-23T17:15:51.222Z,5.49
2023-02-23T17:18:19.868Z,5.47
2023-02-23T17:20:46.612Z,5.47
2023-02-23T17:23:13.651Z,5.46
2023-02-23T17:25:40.140Z,5.44
2023-02-23T17:28:06.704Z,5.43
2023-02-23T17:30:34.856Z,5.42
2023-02-23T17:33:03.021Z,5.35
2023-02-23T17:35:32.824Z,5.27
2023-02-23T17:38:00.596Z,5.24
2023-02-23T17:40:35.601Z,5.22
2023-02-23T17:43:06.787Z,5.20
2023-02-23T17:45:33.563Z,5.17
2023-02-23T17:48:00.157Z,5.15
2023-02-23T17:50:27.491Z,5.13
2023-02-23T17:52:55.081Z,5.13
2023-02-23T17:55:23.637Z,5.10
2023-02-23T17:57:50.143Z,5.11
2023-02-23T18:00:18.091Z,5.07
2023-02-23T18:02:45.156Z,5.06
2023-02-23T18:05:13.506Z,5.15
2023-02-23T18:07:40.149Z,5.15
2023-02-23T18:10:17.675Z,5.15
2023-02-23T18:12:48.049Z,5.10
2023-02-23T18:15:14.866Z,5.07
2023-02-23T18:17:42.070Z,5.09
2023-02-23T18:20:14.265Z,5.08
2023-02-23T18:22:42.543Z,5.06
2023-02-23T18:25:29.791Z,5.03
2023-02-23T18:27:58.030Z,5.00
2023-02-23T18:30:26.417Z,4.98
2023-02-23T18:33:00.041Z,4.97
2023-02-23T18:35:26.943Z,4.95
2023-02-23T18:37:53.902Z,4.95
2023-02-23T18:40:23.114Z,4.95
2023-02-23T18:42:49.645Z,4.95
2023-02-23T18:45:16.883Z,4.93
2023-02-23T18:47:43.667Z,4.92
2023-02-23T18:50:11.977Z,4.93
2023-02-23T18:52:40.130Z,4.94
2023-02-23T18:55:07.929Z,4.94
2023-02-23T18:57:36.952Z,4.96
2023-02-23T19:00:10.726Z,4.98
2023-02-23T19:02:37.539Z,4.99
2023-02-23T19:05:05.178Z,5.00
2023-02-23T19:07:36.924Z,5.02
2023-02-23T19:10:04.793Z,5.03
2023-02-23T19:12:31.852Z,5.05
2023-02-23T19:14:58.703Z,5.07
2023-02-23T19:17:26.500Z,5.06
2023-02-23T19:19:55.773Z,5.06
2023-02-23T19:22:23.262Z,5.04
2023-02-23T19:24:50.193Z,5.02
2023-02-23T19:27:19.666Z,5.02
2023-02-23T19:29:46.403Z,5.01
2023-02-23T19:32:15.730Z,5.00
2023-02-23T19:34:47.701Z,5.00
2023-02-23T19:37:16.824Z,4.99
2023-02-23T19:39:45.895Z,4.99
2023-02-23T19:42:17.566Z,4.99
2023-02-23T19:44:44.916Z,4.97
2023-02-23T19:47:11.837Z,4.98
2023-02-23T19:49:38.482Z,4.96
2023-02-23T19:52:22.397Z,4.95
2023-02-23T19:54:50.097Z,4.89
2023-02-23T19:57:23.554Z,4.89
2023-02-23T19:59:50.334Z,4.86
2023-02-23T20:02:22.653Z,4.83
2023-02-23T20:04:49.770Z,4.78
2023-02-23T20:07:21.810Z,4.81
2023-02-23T20:09:49.112Z,4.83
2023-02-23T20:12:16.059Z,4.81
2023-02-23T20:14:47.300Z,4.81
2023-02-23T20:17:14.150Z,4.80
2023-02-23T20:19:45.080Z,4.78
2023-02-23T20:22:14.521Z,4.85
2023-02-23T20:24:46.873Z,4.84
2023-02-23T20:27:15.621Z,4.80
2023-02-23T20:29:53.040Z,4.75
2023-02-23T20:32:20.001Z,4.69
2023-02-23T20:34:48.276Z,4.61
2023-02-23T20:37:14.754Z,4.56
2023-02-23T20:39:44.424Z,4.51
2023-02-23T20:42:13.673Z,4.46
2023-02-23T20:44:40.870Z,4.43
2023-02-23T20:47:10.909Z,4.38
2023-02-23T20:49:38.354Z,4.38
2023-02-23T20:52:05.256Z,4.33
2023-02-23T20:54:34.578Z,4.31
2023-02-23T20:57:07.065Z,4.24
2023-02-23T20:59:37.055Z,4.22
2023-02-23T21:02:05.386Z,4.19
2023-02-23T21:04:42.950Z,4.18
2023-02-23T21:07:17.143Z,4.14
2023-02-23T21:09:46.678Z,4.11
2023-02-23T21:12:13.634Z,4.10
2023-02-23T21:14:40.630Z,4.07
2023-02-23T21:17:08.981Z,4.00
2023-02-23T21:19:41.290Z,3.99
2023-02-23T21:22:09.018Z,4.00
2023-02-23T21:24:44.899Z,4.00
2023-02-23T21:27:14.913Z,4.00
2023-02-23T21:29:42.381Z,3.98
2023-02-23T21:32:17.537Z,3.97
2023-02-23T21:34:45.197Z,4.01
2023-02-23T21:37:13.005Z,4.04
2023-02-23T21:39:43.049Z,4.09
2023-02-23T21:42:09.758Z,4.11
